sensor_id;sensor_type;location;lat;lon;timestamp;P1;durP1;ratioP1;P2;durP2;ratioP2
74920;SDS011;63483;47.384;8.860;2023-02-15T00:00:53;7.07;;;3.90;;
74920;SDS011;63483;47.384;8.860;2023-02-15T00:03:21;6.35;;;3.80;;
74920;SDS011;63483;47.384;8.860;2023-02-15T00:05:47;11.13;;;5.60;;
74920;SDS011;63483;47.384;8.860;2023-02-15T00:08:12;8.23;;;4.53;;
74920;SDS011;63483;47.384;8.860;2023-02-15T00:10:37;7.30;;;4.47;;
74920;SDS011;63483;47.384;8.860;2023-02-15T00:13:03;7.63;;;4.03;;
74920;SDS011;63483;47.384;8.860;2023-02-15T00:15:28;7.47;;;3.92;;
74920;SDS011;63483;47.384;8.860;2023-02-15T00:17:54;7.73;;;4.03;;
74920;SDS011;63483;47.384;8.860;2023-02-15T00:20:19;7.90;;;3.90;;
74920;SDS011;63483;47.384;8.860;2023-02-15T00:22:45;6.50;;;3.63;;
74920;SDS011;63483;47.384;8.860;2023-02-15T00:25:10;6.80;;;3.53;;
74920;SDS011;63483;47.384;8.860;2023-02-15T00:27:35;6.97;;;4.17;;
74920;SDS011;63483;47.384;8.860;2023-02-15T00:30:01;6.23;;;3.53;;
74920;SDS011;63483;47.384;8.860;2023-02-15T00:32:26;8.07;;;4.10;;
74920;SDS011;63483;47.384;8.860;2023-02-15T00:34:51;7.10;;;3.63;;
74920;SDS011;63483;47.384;8.860;2023-02-15T00:37:17;5.80;;;3.80;;
74920;SDS011;63483;47.384;8.860;2023-02-15T00:39:42;7.73;;;4.30;;
74920;SDS011;63483;47.384;8.860;2023-02-15T00:42:07;6.03;;;3.30;;
74920;SDS011;63483;47.384;8.860;2023-02-15T00:44:33;7.00;;;3.87;;
74920;SDS011;63483;47.384;8.860;2023-02-15T00:46:58;8.40;;;3.87;;
74920;SDS011;63483;47.384;8.860;2023-02-15T00:49:23;5.80;;;3.23;;
74920;SDS011;63483;47.384;8.860;2023-02-15T00:51:49;7.80;;;3.30;;
74920;SDS011;63483;47.384;8.860;2023-02-15T00:54:14;6.77;;;3.80;;
74920;SDS011;63483;47.384;8.860;2023-02-15T00:56:39;6.47;;;3.25;;
74920;SDS011;63483;47.384;8.860;2023-02-15T00:59:05;5.77;;;2.83;;
74920;SDS011;63483;47.384;8.860;2023-02-15T01:01:30;6.13;;;3.10;;
74920;SDS011;63483;47.384;8.860;2023-02-15T01:03:55;7.17;;;3.30;;
74920;SDS011;63483;47.384;8.860;2023-02-15T01:06:21;6.40;;;3.23;;
74920;SDS011;63483;47.384;8.860;2023-02-15T01:08:47;6.43;;;3.87;;
74920;SDS011;63483;47.384;8.860;2023-02-15T01:11:17;7.60;;;3.13;;
74920;SDS011;63483;47.384;8.860;2023-02-15T01:13:53;7.15;;;3.40;;
74920;SDS011;63483;47.384;8.860;2023-02-15T01:16:20;6.20;;;3.15;;
74920;SDS011;63483;47.384;8.860;2023-02-15T01:18:47;5.80;;;3.47;;
74920;SDS011;63483;47.384;8.860;2023-02-15T01:21:14;6.55;;;3.30;;
74920;SDS011;63483;47.384;8.860;2023-02-15T01:23:42;6.13;;;3.60;;
74920;SDS011;63483;47.384;8.860;2023-02-15T01:26:08;9.07;;;3.60;;
74920;SDS011;63483;47.384;8.860;2023-02-15T01:28:34;5.53;;;3.60;;
74920;SDS011;63483;47.384;8.860;2023-02-15T01:31:03;6.60;;;3.23;;
74920;SDS011;63483;47.384;8.860;2023-02-15T01:33:33;5.55;;;3.25;;
74920;SDS011;63483;47.384;8.860;2023-02-15T01:35:59;8.95;;;3.40;;
74920;SDS011;63483;47.384;8.860;2023-02-15T01:38:25;5.03;;;3.30;;
74920;SDS011;63483;47.384;8.860;2023-02-15T01:40:51;7.67;;;3.27;;
74920;SDS011;63483;47.384;8.860;2023-02-15T01:43:17;4.68;;;2.67;;
74920;SDS011;63483;47.384;8.860;2023-02-15T01:45:43;4.97;;;2.35;;
74920;SDS011;63483;47.384;8.860;2023-02-15T01:50:52;5.50;;;3.10;;
74920;SDS011;63483;47.384;8.860;2023-02-15T01:53:31;5.85;;;2.65;;
74920;SDS011;63483;47.384;8.860;2023-02-15T01:56:09;4.63;;;2.47;;
74920;SDS011;63483;47.384;8.860;2023-02-15T01:58:40;5.57;;;2.83;;
74920;SDS011;63483;47.384;8.860;2023-02-15T02:01:06;5.93;;;3.08;;
74920;SDS011;63483;47.384;8.860;2023-02-15T02:06:13;4.57;;;2.80;;
74920;SDS011;63483;47.384;8.860;2023-02-15T02:08:39;4.73;;;2.43;;
74920;SDS011;63483;47.384;8.860;2023-02-15T02:11:11;4.82;;;2.40;;
74920;SDS011;63483;47.384;8.860;2023-02-15T02:13:37;6.78;;;3.00;;
74920;SDS011;63483;47.384;8.860;2023-02-15T02:16:08;5.95;;;3.17;;
74920;SDS011;63483;47.384;8.860;2023-02-15T02:21:25;4.80;;;1.97;;
74920;SDS011;63483;47.384;8.860;2023-02-15T02:29:45;4.40;;;2.28;;
74920;SDS011;63483;47.384;8.860;2023-02-15T02:38:00;7.35;;;2.78;;
74920;SDS011;63483;47.384;8.860;2023-02-15T02:41:00;4.45;;;2.45;;
74920;SDS011;63483;47.384;8.860;2023-02-15T02:43:40;6.03;;;2.50;;
74920;SDS011;63483;47.384;8.860;2023-02-15T02:46:24;7.88;;;4.38;;
74920;SDS011;63483;47.384;8.860;2023-02-15T02:48:57;9.73;;;4.27;;
74920;SDS011;63483;47.384;8.860;2023-02-15T02:51:22;7.60;;;2.95;;
74920;SDS011;63483;47.384;8.860;2023-02-15T02:53:50;10.02;;;4.13;;
74920;SDS011;63483;47.384;8.860;2023-02-15T02:56:26;10.65;;;5.43;;
74920;SDS011;63483;47.384;8.860;2023-02-15T02:59:01;9.75;;;4.43;;
74920;SDS011;63483;47.384;8.860;2023-02-15T03:01:35;9.00;;;4.20;;
74920;SDS011;63483;47.384;8.860;2023-02-15T03:04:11;6.13;;;3.13;;
74920;SDS011;63483;47.384;8.860;2023-02-15T03:06:58;6.95;;;2.63;;
74920;SDS011;63483;47.384;8.860;2023-02-15T03:09:41;5.82;;;2.15;;
74920;SDS011;63483;47.384;8.860;2023-02-15T03:12:19;5.55;;;2.63;;
74920;SDS011;63483;47.384;8.860;2023-02-15T03:14:53;5.18;;;2.08;;
74920;SDS011;63483;47.384;8.860;2023-02-15T03:17:22;4.50;;;2.28;;
74920;SDS011;63483;47.384;8.860;2023-02-15T03:19:51;3.38;;;1.92;;
74920;SDS011;63483;47.384;8.860;2023-02-15T03:22:22;3.72;;;2.05;;
74920;SDS011;63483;47.384;8.860;2023-02-15T03:24:57;4.57;;;2.10;;
74920;SDS011;63483;47.384;8.860;2023-02-15T03:27:30;4.80;;;2.35;;
74920;SDS011;63483;47.384;8.860;2023-02-15T03:29:59;5.13;;;2.50;;
74920;SDS011;63483;47.384;8.860;2023-02-15T03:32:27;6.28;;;2.25;;
74920;SDS011;63483;47.384;8.860;2023-02-15T03:34:56;5.82;;;2.65;;
74920;SDS011;63483;47.384;8.860;2023-02-15T03:40:29;4.30;;;1.98;;
74920;SDS011;63483;47.384;8.860;2023-02-15T03:43:58;5.30;;;1.98;;
74920;SDS011;63483;47.384;8.860;2023-02-15T03:49:07;5.57;;;2.38;;
74920;SDS011;63483;47.384;8.860;2023-02-15T03:51:37;5.15;;;2.75;;
74920;SDS011;63483;47.384;8.860;2023-02-15T03:57:00;6.07;;;2.33;;
74920;SDS011;63483;47.384;8.860;2023-02-15T03:59:44;8.40;;;3.55;;
74920;SDS011;63483;47.384;8.860;2023-02-15T04:02:29;5.22;;;2.38;;
74920;SDS011;63483;47.384;8.860;2023-02-15T04:05:03;5.45;;;2.80;;
74920;SDS011;63483;47.384;8.860;2023-02-15T04:07:29;5.05;;;2.42;;
74920;SDS011;63483;47.384;8.860;2023-02-15T04:09:54;3.90;;;1.77;;
74920;SDS011;63483;47.384;8.860;2023-02-15T04:12:38;4.22;;;2.00;;
74920;SDS011;63483;47.384;8.860;2023-02-15T04:15:03;5.55;;;2.25;;
74920;SDS011;63483;47.384;8.860;2023-02-15T04:17:47;4.40;;;2.00;;
74920;SDS011;63483;47.384;8.860;2023-02-15T04:20:12;4.50;;;2.20;;
74920;SDS011;63483;47.384;8.860;2023-02-15T04:22:56;4.68;;;1.98;;
74920;SDS011;63483;47.384;8.860;2023-02-15T04:25:40;3.92;;;2.17;;
74920;SDS011;63483;47.384;8.860;2023-02-15T04:28:05;3.00;;;1.90;;
74920;SDS011;63483;47.384;8.860;2023-02-15T04:30:32;5.55;;;2.03;;
74920;SDS011;63483;47.384;8.860;2023-02-15T04:32:58;2.63;;;1.30;;
74920;SDS011;63483;47.384;8.860;2023-02-15T04:35:23;2.97;;;1.50;;
74920;SDS011;63483;47.384;8.860;2023-02-15T04:37:49;3.25;;;1.40;;
74920;SDS011;63483;47.384;8.860;2023-02-15T04:40:15;3.07;;;1.57;;
74920;SDS011;63483;47.384;8.860;2023-02-15T04:42:41;3.50;;;1.67;;
74920;SDS011;63483;47.384;8.860;2023-02-15T04:45:06;2.67;;;1.57;;
74920;SDS011;63483;47.384;8.860;2023-02-15T04:47:32;3.15;;;1.88;;
74920;SDS011;63483;47.384;8.860;2023-02-15T04:49:58;3.57;;;1.70;;
74920;SDS011;63483;47.384;8.860;2023-02-15T04:52:23;5.37;;;1.73;;
74920;SDS011;63483;47.384;8.860;2023-02-15T04:54:49;3.15;;;1.33;;
74920;SDS011;63483;47.384;8.860;2023-02-15T04:57:14;2.73;;;1.10;;
74920;SDS011;63483;47.384;8.860;2023-02-15T04:59:39;4.77;;;1.30;;
74920;SDS011;63483;47.384;8.860;2023-02-15T05:02:05;3.50;;;2.00;;
74920;SDS011;63483;47.384;8.860;2023-02-15T05:04:31;3.88;;;1.70;;
74920;SDS011;63483;47.384;8.860;2023-02-15T05:06:56;4.33;;;1.63;;
74920;SDS011;63483;47.384;8.860;2023-02-15T05:09:21;4.83;;;1.53;;
74920;SDS011;63483;47.384;8.860;2023-02-15T05:11:47;3.45;;;1.45;;
74920;SDS011;63483;47.384;8.860;2023-02-15T05:14:12;4.00;;;1.40;;
74920;SDS011;63483;47.384;8.860;2023-02-15T05:16:37;3.80;;;1.40;;
74920;SDS011;63483;47.384;8.860;2023-02-15T05:19:03;3.97;;;1.90;;
74920;SDS011;63483;47.384;8.860;2023-02-15T05:21:29;2.65;;;1.38;;
74920;SDS011;63483;47.384;8.860;2023-02-15T05:23:54;4.47;;;1.70;;
74920;SDS011;63483;47.384;8.860;2023-02-15T05:26:20;2.93;;;1.17;;
74920;SDS011;63483;47.384;8.860;2023-02-15T05:29:06;3.10;;;1.55;;
74920;SDS011;63483;47.384;8.860;2023-02-15T05:31:32;4.57;;;2.08;;
74920;SDS011;63483;47.384;8.860;2023-02-15T05:33:58;3.77;;;1.60;;
74920;SDS011;63483;47.384;8.860;2023-02-15T05:36:24;4.53;;;1.88;;
74920;SDS011;63483;47.384;8.860;2023-02-15T05:38:49;3.37;;;1.80;;
74920;SDS011;63483;47.384;8.860;2023-02-15T05:41:15;3.07;;;1.40;;
74920;SDS011;63483;47.384;8.860;2023-02-15T05:43:40;3.58;;;1.58;;
74920;SDS011;63483;47.384;8.860;2023-02-15T05:46:06;3.70;;;1.60;;
74920;SDS011;63483;47.384;8.860;2023-02-15T05:48:32;4.15;;;1.75;;
74920;SDS011;63483;47.384;8.860;2023-02-15T05:50:59;4.27;;;1.90;;
74920;SDS011;63483;47.384;8.860;2023-02-15T05:53:26;3.45;;;1.80;;
74920;SDS011;63483;47.384;8.860;2023-02-15T05:55:53;3.78;;;2.10;;
74920;SDS011;63483;47.384;8.860;2023-02-15T05:58:23;4.30;;;1.85;;
74920;SDS011;63483;47.384;8.860;2023-02-15T06:00:52;3.40;;;1.70;;
74920;SDS011;63483;47.384;8.860;2023-02-15T06:03:18;5.17;;;2.43;;
74920;SDS011;63483;47.384;8.860;2023-02-15T06:05:43;4.10;;;2.23;;
74920;SDS011;63483;47.384;8.860;2023-02-15T06:08:08;4.40;;;1.92;;
74920;SDS011;63483;47.384;8.860;2023-02-15T06:10:34;3.00;;;1.75;;
74920;SDS011;63483;47.384;8.860;2023-02-15T06:12:59;3.37;;;1.80;;
74920;SDS011;63483;47.384;8.860;2023-02-15T06:15:25;4.40;;;2.10;;
74920;SDS011;63483;47.384;8.860;2023-02-15T06:17:50;3.30;;;1.90;;
74920;SDS011;63483;47.384;8.860;2023-02-15T06:20:15;4.40;;;1.57;;
74920;SDS011;63483;47.384;8.860;2023-02-15T06:22:41;5.03;;;1.80;;
74920;SDS011;63483;47.384;8.860;2023-02-15T06:25:06;4.43;;;1.60;;
74920;SDS011;63483;47.384;8.860;2023-02-15T06:27:34;5.47;;;1.80;;
74920;SDS011;63483;47.384;8.860;2023-02-15T06:30:00;5.03;;;2.35;;
74920;SDS011;63483;47.384;8.860;2023-02-15T06:32:25;3.13;;;1.70;;
74920;SDS011;63483;47.384;8.860;2023-02-15T06:34:51;4.43;;;1.87;;
74920;SDS011;63483;47.384;8.860;2023-02-15T06:37:16;5.07;;;1.80;;
74920;SDS011;63483;47.384;8.860;2023-02-15T06:39:41;3.33;;;2.00;;
74920;SDS011;63483;47.384;8.860;2023-02-15T06:42:07;6.82;;;1.38;;
74920;SDS011;63483;47.384;8.860;2023-02-15T06:44:33;4.97;;;2.10;;
74920;SDS011;63483;47.384;8.860;2023-02-15T06:46:58;3.40;;;1.70;;
74920;SDS011;63483;47.384;8.860;2023-02-15T06:49:23;5.03;;;2.80;;
74920;SDS011;63483;47.384;8.860;2023-02-15T06:51:49;6.03;;;3.45;;
74920;SDS011;63483;47.384;8.860;2023-02-15T06:54:14;6.18;;;4.00;;
74920;SDS011;63483;47.384;8.860;2023-02-15T06:56:39;4.67;;;2.70;;
74920;SDS011;63483;47.384;8.860;2023-02-15T06:59:05;4.20;;;2.97;;
74920;SDS011;63483;47.384;8.860;2023-02-15T07:01:30;8.20;;;3.10;;
74920;SDS011;63483;47.384;8.860;2023-02-15T07:03:55;6.00;;;2.80;;
74920;SDS011;63483;47.384;8.860;2023-02-15T07:06:21;5.07;;;2.90;;
74920;SDS011;63483;47.384;8.860;2023-02-15T07:08:46;4.53;;;3.03;;
74920;SDS011;63483;47.384;8.860;2023-02-15T07:11:12;4.70;;;2.50;;
74920;SDS011;63483;47.384;8.860;2023-02-15T07:13:55;4.55;;;2.05;;
74920;SDS011;63483;47.384;8.860;2023-02-15T07:16:21;5.30;;;3.13;;
74920;SDS011;63483;47.384;8.860;2023-02-15T07:18:46;4.67;;;2.20;;
74920;SDS011;63483;47.384;8.860;2023-02-15T07:21:11;7.23;;;3.10;;
74920;SDS011;63483;47.384;8.860;2023-02-15T07:23:37;5.37;;;2.80;;
74920;SDS011;63483;47.384;8.860;2023-02-15T07:26:04;6.15;;;3.42;;
74920;SDS011;63483;47.384;8.860;2023-02-15T07:28:30;6.13;;;3.20;;
74920;SDS011;63483;47.384;8.860;2023-02-15T07:30:56;6.22;;;3.70;;
74920;SDS011;63483;47.384;8.860;2023-02-15T07:33:22;4.80;;;3.15;;
74920;SDS011;63483;47.384;8.860;2023-02-15T07:35:52;5.32;;;2.65;;
74920;SDS011;63483;47.384;8.860;2023-02-15T07:38:20;5.88;;;3.30;;
74920;SDS011;63483;47.384;8.860;2023-02-15T07:40:46;6.43;;;3.22;;
74920;SDS011;63483;47.384;8.860;2023-02-15T07:43:12;5.43;;;3.00;;
74920;SDS011;63483;47.384;8.860;2023-02-15T07:45:38;5.97;;;2.70;;
74920;SDS011;63483;47.384;8.860;2023-02-15T07:48:04;5.22;;;2.97;;
74920;SDS011;63483;47.384;8.860;2023-02-15T07:50:31;6.05;;;3.20;;
74920;SDS011;63483;47.384;8.860;2023-02-15T07:52:57;5.80;;;3.00;;
74920;SDS011;63483;47.384;8.860;2023-02-15T07:55:22;7.82;;;3.08;;
74920;SDS011;63483;47.384;8.860;2023-02-15T07:57:48;4.82;;;3.30;;
74920;SDS011;63483;47.384;8.860;2023-02-15T08:00:15;7.67;;;3.23;;
74920;SDS011;63483;47.384;8.860;2023-02-15T08:02:42;5.55;;;3.15;;
74920;SDS011;63483;47.384;8.860;2023-02-15T08:05:12;8.15;;;3.17;;
74920;SDS011;63483;47.384;8.860;2023-02-15T08:07:38;5.13;;;2.73;;
74920;SDS011;63483;47.384;8.860;2023-02-15T08:10:03;3.93;;;2.40;;
74920;SDS011;63483;47.384;8.860;2023-02-15T08:12:29;7.20;;;3.58;;
74920;SDS011;63483;47.384;8.860;2023-02-15T08:14:54;5.90;;;2.83;;
74920;SDS011;63483;47.384;8.860;2023-02-15T08:17:19;4.40;;;2.37;;
74920;SDS011;63483;47.384;8.860;2023-02-15T08:19:45;5.53;;;2.70;;
74920;SDS011;63483;47.384;8.860;2023-02-15T08:22:12;5.22;;;2.05;;
74920;SDS011;63483;47.384;8.860;2023-02-15T08:24:39;3.47;;;1.52;;
74920;SDS011;63483;47.384;8.860;2023-02-15T08:27:06;4.80;;;1.60;;
74920;SDS011;63483;47.384;8.860;2023-02-15T08:29:34;3.13;;;1.63;;
74920;SDS011;63483;47.384;8.860;2023-02-15T08:32:04;5.40;;;1.58;;
74920;SDS011;63483;47.384;8.860;2023-02-15T08:34:32;3.03;;;2.00;;
74920;SDS011;63483;47.384;8.860;2023-02-15T08:37:00;4.18;;;2.33;;
74920;SDS011;63483;47.384;8.860;2023-02-15T08:39:26;4.20;;;1.70;;
74920;SDS011;63483;47.384;8.860;2023-02-15T08:41:51;3.57;;;2.13;;
74920;SDS011;63483;47.384;8.860;2023-02-15T08:44:17;4.45;;;1.85;;
74920;SDS011;63483;47.384;8.860;2023-02-15T08:46:44;3.13;;;1.70;;
74920;SDS011;63483;47.384;8.860;2023-02-15T08:49:12;4.10;;;1.80;;
74920;SDS011;63483;47.384;8.860;2023-02-15T08:51:39;4.07;;;2.17;;
74920;SDS011;63483;47.384;8.860;2023-02-15T08:54:07;4.40;;;2.37;;
74920;SDS011;63483;47.384;8.860;2023-02-15T08:56:37;4.22;;;2.05;;
74920;SDS011;63483;47.384;8.860;2023-02-15T08:59:05;3.97;;;1.80;;
74920;SDS011;63483;47.384;8.860;2023-02-15T09:01:32;5.90;;;2.00;;
74920;SDS011;63483;47.384;8.860;2023-02-15T09:04:03;5.10;;;2.17;;
74920;SDS011;63483;47.384;8.860;2023-02-15T09:06:31;4.43;;;2.00;;
74920;SDS011;63483;47.384;8.860;2023-02-15T09:08:57;4.22;;;1.90;;
74920;SDS011;63483;47.384;8.860;2023-02-15T09:11:29;5.73;;;2.67;;
74920;SDS011;63483;47.384;8.860;2023-02-15T09:13:57;5.32;;;2.70;;
74920;SDS011;63483;47.384;8.860;2023-02-15T09:16:29;5.18;;;2.47;;
74920;SDS011;63483;47.384;8.860;2023-02-15T09:18:56;4.30;;;2.05;;
74920;SDS011;63483;47.384;8.860;2023-02-15T09:21:29;5.30;;;2.58;;
74920;SDS011;63483;47.384;8.860;2023-02-15T09:23:57;5.53;;;2.73;;
74920;SDS011;63483;47.384;8.860;2023-02-15T09:26:25;5.45;;;2.63;;
74920;SDS011;63483;47.384;8.860;2023-02-15T09:28:55;6.15;;;3.13;;
74920;SDS011;63483;47.384;8.860;2023-02-15T09:31:24;4.13;;;2.10;;
74920;SDS011;63483;47.384;8.860;2023-02-15T09:33:50;3.95;;;2.08;;
74920;SDS011;63483;47.384;8.860;2023-02-15T09:36:26;7.30;;;3.30;;
74920;SDS011;63483;47.384;8.860;2023-02-15T09:38:57;6.57;;;2.75;;
74920;SDS011;63483;47.384;8.860;2023-02-15T10:20:28;8.73;;;4.72;;
74920;SDS011;63483;47.384;8.860;2023-02-15T10:28:16;8.03;;;4.70;;
74920;SDS011;63483;47.384;8.860;2023-02-15T10:30:47;7.38;;;4.70;;
74920;SDS011;63483;47.384;8.860;2023-02-15T10:35:51;9.80;;;5.38;;
74920;SDS011;63483;47.384;8.860;2023-02-15T10:41:13;10.83;;;6.63;;
74920;SDS011;63483;47.384;8.860;2023-02-15T10:43:55;12.38;;;7.05;;
74920;SDS011;63483;47.384;8.860;2023-02-15T11:00:38;12.00;;;7.63;;
74920;SDS011;63483;47.384;8.860;2023-02-15T11:08:57;12.73;;;8.33;;
74920;SDS011;63483;47.384;8.860;2023-02-15T11:11:36;12.93;;;7.80;;
74920;SDS011;63483;47.384;8.860;2023-02-15T11:14:17;10.75;;;6.97;;
74920;SDS011;63483;47.384;8.860;2023-02-15T11:16:54;12.60;;;6.75;;
74920;SDS011;63483;47.384;8.860;2023-02-15T11:19:34;8.90;;;5.93;;
74920;SDS011;63483;47.384;8.860;2023-02-15T11:22:04;10.50;;;6.90;;
74920;SDS011;63483;47.384;8.860;2023-02-15T11:24:40;8.40;;;6.07;;
74920;SDS011;63483;47.384;8.860;2023-02-15T11:27:19;8.05;;;5.35;;
74920;SDS011;63483;47.384;8.860;2023-02-15T11:29:55;9.25;;;6.13;;
74920;SDS011;63483;47.384;8.860;2023-02-15T11:35:22;14.17;;;7.10;;
74920;SDS011;63483;47.384;8.860;2023-02-15T11:38:19;9.73;;;6.18;;
74920;SDS011;63483;47.384;8.860;2023-02-15T11:41:14;8.82;;;5.53;;
74920;SDS011;63483;47.384;8.860;2023-02-15T11:43:47;9.40;;;5.68;;
74920;SDS011;63483;47.384;8.860;2023-02-15T11:46:23;10.60;;;6.35;;
74920;SDS011;63483;47.384;8.860;2023-02-15T11:48:49;11.00;;;5.70;;
74920;SDS011;63483;47.384;8.860;2023-02-15T11:51:16;8.80;;;5.87;;
74920;SDS011;63483;47.384;8.860;2023-02-15T11:53:45;10.52;;;6.45;;
74920;SDS011;63483;47.384;8.860;2023-02-15T11:56:18;9.13;;;5.45;;
74920;SDS011;63483;47.384;8.860;2023-02-15T12:01:42;8.47;;;5.37;;
74920;SDS011;63483;47.384;8.860;2023-02-15T12:04:32;8.38;;;5.10;;
74920;SDS011;63483;47.384;8.860;2023-02-15T12:14:55;11.73;;;6.83;;
74920;SDS011;63483;47.384;8.860;2023-02-15T12:17:26;9.93;;;6.72;;
74920;SDS011;63483;47.384;8.860;2023-02-15T12:19:57;10.60;;;7.07;;
74920;SDS011;63483;47.384;8.860;2023-02-15T12:22:29;9.93;;;7.05;;
74920;SDS011;63483;47.384;8.860;2023-02-15T12:25:00;12.73;;;7.75;;
74920;SDS011;63483;47.384;8.860;2023-02-15T12:27:42;10.67;;;7.63;;
74920;SDS011;63483;47.384;8.860;2023-02-15T12:30:17;10.38;;;7.50;;
74920;SDS011;63483;47.384;8.860;2023-02-15T12:32:51;11.52;;;6.95;;
74920;SDS011;63483;47.384;8.860;2023-02-15T12:35:32;12.10;;;6.33;;
74920;SDS011;63483;47.384;8.860;2023-02-15T12:40:56;8.52;;;5.63;;
74920;SDS011;63483;47.384;8.860;2023-02-15T12:43:33;11.27;;;6.45;;
74920;SDS011;63483;47.384;8.860;2023-02-15T12:49:11;8.00;;;4.90;;
74920;SDS011;63483;47.384;8.860;2023-02-15T12:51:43;9.95;;;6.22;;
74920;SDS011;63483;47.384;8.860;2023-02-15T12:54:33;9.50;;;6.20;;
74920;SDS011;63483;47.384;8.860;2023-02-15T12:57:13;9.15;;;4.93;;
74920;SDS011;63483;47.384;8.860;2023-02-15T13:02:52;7.67;;;5.23;;
74920;SDS011;63483;47.384;8.860;2023-02-15T13:05:29;11.63;;;6.43;;
74920;SDS011;63483;47.384;8.860;2023-02-15T13:07:58;9.98;;;6.18;;
74920;SDS011;63483;47.384;8.860;2023-02-15T13:10:28;10.45;;;6.05;;
74920;SDS011;63483;47.384;8.860;2023-02-15T13:12:56;10.98;;;6.25;;
74920;SDS011;63483;47.384;8.860;2023-02-15T13:15:32;11.10;;;6.33;;
74920;SDS011;63483;47.384;8.860;2023-02-15T13:18:01;11.80;;;6.75;;
74920;SDS011;63483;47.384;8.860;2023-02-15T13:20:29;11.40;;;6.82;;
74920;SDS011;63483;47.384;8.860;2023-02-15T13:22:58;12.38;;;6.93;;
74920;SDS011;63483;47.384;8.860;2023-02-15T13:25:27;11.48;;;6.40;;
74920;SDS011;63483;47.384;8.860;2023-02-15T13:27:57;11.43;;;7.40;;
74920;SDS011;63483;47.384;8.860;2023-02-15T13:30:31;12.90;;;7.88;;
74920;SDS011;63483;47.384;8.860;2023-02-15T13:33:04;13.52;;;8.45;;
74920;SDS011;63483;47.384;8.860;2023-02-15T13:35:37;12.77;;;7.15;;
74920;SDS011;63483;47.384;8.860;2023-02-15T13:41:32;12.80;;;7.87;;
74920;SDS011;63483;47.384;8.860;2023-02-15T13:47:30;14.05;;;8.13;;
74920;SDS011;63483;47.384;8.860;2023-02-15T13:52:30;13.68;;;7.63;;
74920;SDS011;63483;47.384;8.860;2023-02-15T13:55:14;15.03;;;7.80;;
74920;SDS011;63483;47.384;8.860;2023-02-15T14:01:16;13.15;;;7.78;;
74920;SDS011;63483;47.384;8.860;2023-02-15T14:03:36;15.63;;;7.70;;
74920;SDS011;63483;47.384;8.860;2023-02-15T14:11:57;14.68;;;7.88;;
74920;SDS011;63483;47.384;8.860;2023-02-15T14:28:05;14.15;;;8.18;;
74920;SDS011;63483;47.384;8.860;2023-02-15T14:30:41;13.15;;;7.60;;
74920;SDS011;63483;47.384;8.860;2023-02-15T14:36:03;15.13;;;8.13;;
74920;SDS011;63483;47.384;8.860;2023-02-15T14:41:37;12.98;;;7.65;;
74920;SDS011;63483;47.384;8.860;2023-02-15T14:44:29;13.77;;;8.15;;
74920;SDS011;63483;47.384;8.860;2023-02-15T14:47:08;12.75;;;7.25;;
74920;SDS011;63483;47.384;8.860;2023-02-15T14:49:42;13.40;;;7.50;;
74920;SDS011;63483;47.384;8.860;2023-02-15T14:52:08;13.23;;;8.20;;
74920;SDS011;63483;47.384;8.860;2023-02-15T15:05:35;15.20;;;8.27;;
74920;SDS011;63483;47.384;8.860;2023-02-15T15:08:19;13.50;;;8.30;;
74920;SDS011;63483;47.384;8.860;2023-02-15T15:10:50;14.50;;;8.70;;
74920;SDS011;63483;47.384;8.860;2023-02-15T15:15:56;14.80;;;8.20;;
74920;SDS011;63483;47.384;8.860;2023-02-15T15:18:54;14.63;;;7.55;;
74920;SDS011;63483;47.384;8.860;2023-02-15T15:32:37;14.60;;;7.10;;
74920;SDS011;63483;47.384;8.860;2023-02-15T15:48:45;14.95;;;8.73;;
74920;SDS011;63483;47.384;8.860;2023-02-15T15:56:49;14.18;;;7.57;;
74920;SDS011;63483;47.384;8.860;2023-02-15T15:59:22;14.43;;;7.72;;
74920;SDS011;63483;47.384;8.860;2023-02-15T16:01:51;14.23;;;7.40;;
74920;SDS011;63483;47.384;8.860;2023-02-15T16:04:27;14.40;;;8.70;;
74920;SDS011;63483;47.384;8.860;2023-02-15T16:06:58;15.68;;;8.48;;
74920;SDS011;63483;47.384;8.860;2023-02-15T16:09:38;15.82;;;8.73;;
74920;SDS011;63483;47.384;8.860;2023-02-15T16:12:04;13.67;;;8.60;;
74920;SDS011;63483;47.384;8.860;2023-02-15T16:14:39;14.40;;;8.07;;
74920;SDS011;63483;47.384;8.860;2023-02-15T16:17:06;15.93;;;8.35;;
74920;SDS011;63483;47.384;8.860;2023-02-15T16:19:40;19.45;;;8.70;;
74920;SDS011;63483;47.384;8.860;2023-02-15T16:22:10;16.30;;;8.90;;
74920;SDS011;63483;47.384;8.860;2023-02-15T16:27:38;15.95;;;8.88;;
74920;SDS011;63483;47.384;8.860;2023-02-15T16:35:30;16.63;;;8.20;;
74920;SDS011;63483;47.384;8.860;2023-02-15T16:37:56;13.20;;;8.25;;
74920;SDS011;63483;47.384;8.860;2023-02-15T16:42:56;16.30;;;8.88;;
74920;SDS011;63483;47.384;8.860;2023-02-15T16:45:26;13.63;;;7.78;;
74920;SDS011;63483;47.384;8.860;2023-02-15T16:47:55;15.63;;;8.05;;
74920;SDS011;63483;47.384;8.860;2023-02-15T16:50:23;13.77;;;7.20;;
74920;SDS011;63483;47.384;8.860;2023-02-15T16:52:53;16.48;;;7.20;;
74920;SDS011;63483;47.384;8.860;2023-02-15T16:55:23;14.57;;;7.33;;
74920;SDS011;63483;47.384;8.860;2023-02-15T16:57:50;16.70;;;7.93;;
74920;SDS011;63483;47.384;8.860;2023-02-15T17:00:21;14.85;;;7.63;;
74920;SDS011;63483;47.384;8.860;2023-02-15T17:02:59;12.27;;;6.57;;
74920;SDS011;63483;47.384;8.860;2023-02-15T17:05:30;13.50;;;7.80;;
74920;SDS011;63483;47.384;8.860;2023-02-15T17:08:14;13.47;;;7.90;;
74920;SDS011;63483;47.384;8.860;2023-02-15T17:11:02;17.25;;;7.50;;
74920;SDS011;63483;47.384;8.860;2023-02-15T17:13:34;14.25;;;7.55;;
74920;SDS011;63483;47.384;8.860;2023-02-15T17:18:43;15.47;;;9.20;;
74920;SDS011;63483;47.384;8.860;2023-02-15T17:21:16;14.43;;;7.07;;
74920;SDS011;63483;47.384;8.860;2023-02-15T17:23:45;13.73;;;7.85;;
74920;SDS011;63483;47.384;8.860;2023-02-15T17:26:14;15.40;;;7.93;;
74920;SDS011;63483;47.384;8.860;2023-02-15T17:28:48;13.67;;;7.37;;
74920;SDS011;63483;47.384;8.860;2023-02-15T17:31:19;17.67;;;8.13;;
74920;SDS011;63483;47.384;8.860;2023-02-15T17:33:46;14.63;;;8.55;;
74920;SDS011;63483;47.384;8.860;2023-02-15T17:36:13;15.27;;;8.27;;
74920;SDS011;63483;47.384;8.860;2023-02-15T17:41:21;15.07;;;8.53;;
74920;SDS011;63483;47.384;8.860;2023-02-15T17:43:46;12.43;;;7.93;;
74920;SDS011;63483;47.384;8.860;2023-02-15T17:46:12;15.63;;;8.02;;
74920;SDS011;63483;47.384;8.860;2023-02-15T17:48:37;13.90;;;8.20;;
74920;SDS011;63483;47.384;8.860;2023-02-15T17:51:06;15.02;;;8.93;;
74920;SDS011;63483;47.384;8.860;2023-02-15T17:53:37;16.60;;;9.10;;
74920;SDS011;63483;47.384;8.860;2023-02-15T17:56:02;15.15;;;7.28;;
74920;SDS011;63483;47.384;8.860;2023-02-15T17:58:37;16.52;;;8.27;;
74920;SDS011;63483;47.384;8.860;2023-02-15T18:01:05;17.43;;;7.87;;
74920;SDS011;63483;47.384;8.860;2023-02-15T18:03:54;13.82;;;7.40;;
74920;SDS011;63483;47.384;8.860;2023-02-15T18:06:39;13.98;;;7.57;;
74920;SDS011;63483;47.384;8.860;2023-02-15T18:09:26;15.55;;;8.55;;
74920;SDS011;63483;47.384;8.860;2023-02-15T18:12:20;15.82;;;8.63;;
74920;SDS011;63483;47.384;8.860;2023-02-15T18:14:48;12.73;;;7.30;;
74920;SDS011;63483;47.384;8.860;2023-02-15T18:17:14;16.98;;;8.45;;
74920;SDS011;63483;47.384;8.860;2023-02-15T18:19:41;15.23;;;7.45;;
74920;SDS011;63483;47.384;8.860;2023-02-15T18:22:11;13.77;;;7.35;;
74920;SDS011;63483;47.384;8.860;2023-02-15T18:24:37;13.38;;;7.72;;
74920;SDS011;63483;47.384;8.860;2023-02-15T18:27:03;12.00;;;7.07;;
74920;SDS011;63483;47.384;8.860;2023-02-15T18:29:29;12.90;;;7.47;;
74920;SDS011;63483;47.384;8.860;2023-02-15T18:31:54;13.63;;;7.77;;
74920;SDS011;63483;47.384;8.860;2023-02-15T18:34:28;12.70;;;7.00;;
74920;SDS011;63483;47.384;8.860;2023-02-15T18:36:56;12.30;;;7.00;;
74920;SDS011;63483;47.384;8.860;2023-02-15T18:39:39;13.23;;;7.40;;